sensor_id;sensor_type;location;lat;lon;timestamp;P1;durP1;ratioP1;P2;durP2;ratioP2
9056;SDS011;4563;54.756;9.400;2023-02-15T00:01:53;48.20;;;23.80;;
9056;SDS011;4563;54.756;9.400;2023-02-15T00:04:23;43.83;;;22.53;;
9056;SDS011;4563;54.756;9.400;2023-02-15T00:07:11;41.30;;;22.23;;
9056;SDS011;4563;54.756;9.400;2023-02-15T00:09:38;45.10;;;21.90;;
9056;SDS011;4563;54.756;9.400;2023-02-15T00:12:07;40.83;;;23.37;;
9056;SDS011;4563;54.756;9.400;2023-02-15T00:14:34;45.13;;;22.33;;
9056;SDS011;4563;54.756;9.400;2023-02-15T00:17:01;44.47;;;22.80;;
9056;SDS011;4563;54.756;9.400;2023-02-15T00:19:28;41.00;;;22.27;;
9056;SDS011;4563;54.756;9.400;2023-02-15T00:21:55;43.23;;;23.17;;
9056;SDS011;4563;54.756;9.400;2023-02-15T00:24:21;44.53;;;22.83;;
9056;SDS011;4563;54.756;9.400;2023-02-15T00:26:48;42.53;;;22.93;;
9056;SDS011;4563;54.756;9.400;2023-02-15T00:29:17;43.57;;;22.37;;
9056;SDS011;4563;54.756;9.400;2023-02-15T00:31:45;43.90;;;22.57;;
9056;SDS011;4563;54.756;9.400;2023-02-15T00:34:14;44.60;;;23.03;;
9056;SDS011;4563;54.756;9.400;2023-02-15T00:36:42;42.90;;;22.90;;
9056;SDS011;4563;54.756;9.400;2023-02-15T00:39:10;43.47;;;21.60;;
9056;SDS011;4563;54.756;9.400;2023-02-15T00:41:38;47.43;;;22.63;;
9056;SDS011;4563;54.756;9.400;2023-02-15T00:44:05;43.33;;;22.93;;
9056;SDS011;4563;54.756;9.400;2023-02-15T00:46:34;42.57;;;22.10;;
9056;SDS011;4563;54.756;9.400;2023-02-15T00:49:01;47.63;;;24.17;;
9056;SDS011;4563;54.756;9.400;2023-02-15T00:51:28;47.17;;;23.13;;
9056;SDS011;4563;54.756;9.400;2023-02-15T00:53:55;45.03;;;24.17;;
9056;SDS011;4563;54.756;9.400;2023-02-15T00:56:22;50.53;;;25.20;;
9056;SDS011;4563;54.756;9.400;2023-02-15T00:58:49;47.90;;;24.50;;
9056;SDS011;4563;54.756;9.400;2023-02-15T01:01:17;47.47;;;23.83;;
9056;SDS011;4563;54.756;9.400;2023-02-15T01:03:46;46.60;;;24.30;;
9056;SDS011;4563;54.756;9.400;2023-02-15T01:06:13;48.27;;;23.63;;
9056;SDS011;4563;54.756;9.400;2023-02-15T01:08:42;45.53;;;23.50;;
9056;SDS011;4563;54.756;9.400;2023-02-15T01:11:09;45.90;;;24.33;;
9056;SDS011;4563;54.756;9.400;2023-02-15T01:13:38;47.80;;;23.67;;
9056;SDS011;4563;54.756;9.400;2023-02-15T01:16:06;46.27;;;23.13;;
9056;SDS011;4563;54.756;9.400;2023-02-15T01:18:34;43.17;;;22.17;;
9056;SDS011;4563;54.756;9.400;2023-02-15T01:21:09;46.80;;;24.43;;
9056;SDS011;4563;54.756;9.400;2023-02-15T01:23:38;42.53;;;22.10;;
9056;SDS011;4563;54.756;9.400;2023-02-15T01:26:05;45.80;;;23.27;;
9056;SDS011;4563;54.756;9.400;2023-02-15T01:28:33;43.37;;;22.03;;
9056;SDS011;4563;54.756;9.400;2023-02-15T01:31:04;47.83;;;23.57;;
9056;SDS011;4563;54.756;9.400;2023-02-15T01:33:31;50.43;;;25.10;;
9056;SDS011;4563;54.756;9.400;2023-02-15T01:35:58;52.67;;;24.93;;
9056;SDS011;4563;54.756;9.400;2023-02-15T01:38:26;45.73;;;23.13;;
9056;SDS011;4563;54.756;9.400;2023-02-15T01:40:53;48.40;;;23.77;;
9056;SDS011;4563;54.756;9.400;2023-02-15T01:43:42;50.77;;;23.90;;
9056;SDS011;4563;54.756;9.400;2023-02-15T01:46:10;43.37;;;22.30;;
9056;SDS011;4563;54.756;9.400;2023-02-15T01:48:40;41.97;;;22.23;;
9056;SDS011;4563;54.756;9.400;2023-02-15T01:51:12;54.23;;;19.67;;
9056;SDS011;4563;54.756;9.400;2023-02-15T01:53:43;42.77;;;19.23;;
9056;SDS011;4563;54.756;9.400;2023-02-15T01:56:15;51.97;;;17.77;;
9056;SDS011;4563;54.756;9.400;2023-02-15T01:58:45;42.20;;;17.67;;
9056;SDS011;4563;54.756;9.400;2023-02-15T02:01:14;31.90;;;17.13;;
9056;SDS011;4563;54.756;9.400;2023-02-15T02:03:43;35.33;;;18.10;;
9056;SDS011;4563;54.756;9.400;2023-02-15T02:06:16;30.47;;;16.87;;
9056;SDS011;4563;54.756;9.400;2023-02-15T02:08:44;32.10;;;16.57;;
9056;SDS011;4563;54.756;9.400;2023-02-15T02:11:12;24.00;;;13.67;;
9056;SDS011;4563;54.756;9.400;2023-02-15T02:13:39;30.37;;;15.47;;
9056;SDS011;4563;54.756;9.400;2023-02-15T02:16:08;28.97;;;16.80;;
9056;SDS011;4563;54.756;9.400;2023-02-15T02:18:42;27.67;;;16.10;;
9056;SDS011;4563;54.756;9.400;2023-02-15T02:24:23;28.77;;;15.23;;
9056;SDS011;4563;54.756;9.400;2023-02-15T02:27:19;23.73;;;14.73;;
9056;SDS011;4563;54.756;9.400;2023-02-15T02:30:07;33.07;;;16.27;;
9056;SDS011;4563;54.756;9.400;2023-02-15T02:32:52;41.23;;;16.93;;
9056;SDS011;4563;54.756;9.400;2023-02-15T02:35:33;37.27;;;15.80;;
9056;SDS011;4563;54.756;9.400;2023-02-15T02:38:08;47.93;;;15.70;;
9056;SDS011;4563;54.756;9.400;2023-02-15T02:40:43;35.63;;;16.07;;
9056;SDS011;4563;54.756;9.400;2023-02-15T02:43:18;45.33;;;15.63;;
9056;SDS011;4563;54.756;9.400;2023-02-15T02:45:52;22.90;;;15.53;;
9056;SDS011;4563;54.756;9.400;2023-02-15T02:48:25;33.23;;;16.07;;
9056;SDS011;4563;54.756;9.400;2023-02-15T02:50:54;36.43;;;17.03;;
9056;SDS011;4563;54.756;9.400;2023-02-15T02:53:20;33.70;;;14.30;;
9056;SDS011;4563;54.756;9.400;2023-02-15T02:55:48;40.47;;;14.43;;
9056;SDS011;4563;54.756;9.400;2023-02-15T02:58:18;33.17;;;14.53;;
9056;SDS011;4563;54.756;9.400;2023-02-15T03:00:51;46.57;;;15.03;;
9056;SDS011;4563;54.756;9.400;2023-02-15T03:03:24;39.60;;;13.17;;
9056;SDS011;4563;54.756;9.400;2023-02-15T03:05:56;19.43;;;12.30;;
9056;SDS011;4563;54.756;9.400;2023-02-15T03:08:28;15.77;;;12.07;;
9056;SDS011;4563;54.756;9.400;2023-02-15T03:11:00;35.43;;;12.00;;
9056;SDS011;4563;54.756;9.400;2023-02-15T03:13:29;35.50;;;11.70;;
9056;SDS011;4563;54.756;9.400;2023-02-15T03:15:56;35.80;;;11.03;;
9056;SDS011;4563;54.756;9.400;2023-02-15T03:18:44;19.67;;;9.93;;
9056;SDS011;4563;54.756;9.400;2023-02-15T03:21:17;27.53;;;9.80;;
9056;SDS011;4563;54.756;9.400;2023-02-15T03:23:48;38.73;;;11.63;;
9056;SDS011;4563;54.756;9.400;2023-02-15T03:26:18;28.77;;;10.80;;
9056;SDS011;4563;54.756;9.400;2023-02-15T03:28:49;36.53;;;11.73;;
9056;SDS011;4563;54.756;9.400;2023-02-15T03:31:19;29.90;;;10.60;;
9056;SDS011;4563;54.756;9.400;2023-02-15T03:33:50;31.50;;;11.43;;
9056;SDS011;4563;54.756;9.400;2023-02-15T03:36:20;35.07;;;11.97;;
9056;SDS011;4563;54.756;9.400;2023-02-15T03:38:53;40.07;;;12.70;;
9056;SDS011;4563;54.756;9.400;2023-02-15T03:41:25;46.37;;;11.20;;
9056;SDS011;4563;54.756;9.400;2023-02-15T03:43:58;34.03;;;12.77;;
9056;SDS011;4563;54.756;9.400;2023-02-15T03:46:30;20.63;;;11.93;;
9056;SDS011;4563;54.756;9.400;2023-02-15T03:49:03;61.10;;;11.50;;
9056;SDS011;4563;54.756;9.400;2023-02-15T03:51:34;20.00;;;11.67;;
9056;SDS011;4563;54.756;9.400;2023-02-15T03:54:04;32.10;;;12.80;;
9056;SDS011;4563;54.756;9.400;2023-02-15T03:56:34;17.87;;;11.43;;
9056;SDS011;4563;54.756;9.400;2023-02-15T03:59:02;41.03;;;11.87;;
9056;SDS011;4563;54.756;9.400;2023-02-15T04:01:48;30.03;;;13.03;;
9056;SDS011;4563;54.756;9.400;2023-02-15T04:04:25;28.50;;;11.03;;
9056;SDS011;4563;54.756;9.400;2023-02-15T04:06:56;65.07;;;11.37;;
9056;SDS011;4563;54.756;9.400;2023-02-15T04:09:23;18.43;;;12.20;;
9056;SDS011;4563;54.756;9.400;2023-02-15T04:12:07;30.50;;;10.30;;
9056;SDS011;4563;54.756;9.400;2023-02-15T04:14:33;29.70;;;10.47;;
9056;SDS011;4563;54.756;9.400;2023-02-15T04:17:18;44.57;;;11.70;;
9056;SDS011;4563;54.756;9.400;2023-02-15T04:19:46;19.83;;;9.93;;
9056;SDS011;4563;54.756;9.400;2023-02-15T04:22:31;45.60;;;10.63;;
9056;SDS011;4563;54.756;9.400;2023-02-15T04:25:15;19.07;;;10.57;;
9056;SDS011;4563;54.756;9.400;2023-02-15T04:27:43;16.37;;;9.97;;
9056;SDS011;4563;54.756;9.400;2023-02-15T04:30:12;46.13;;;9.87;;
9056;SDS011;4563;54.756;9.400;2023-02-15T04:32:40;23.10;;;9.30;;
9056;SDS011;4563;54.756;9.400;2023-02-15T04:35:08;30.20;;;9.23;;
9056;SDS011;4563;54.756;9.400;2023-02-15T04:37:36;45.87;;;9.90;;
9056;SDS011;4563;54.756;9.400;2023-02-15T04:40:05;27.87;;;8.90;;
9056;SDS011;4563;54.756;9.400;2023-02-15T04:42:33;23.33;;;8.70;;
9056;SDS011;4563;54.756;9.400;2023-02-15T04:45:00;21.07;;;8.93;;
9056;SDS011;4563;54.756;9.400;2023-02-15T04:47:26;27.93;;;8.83;;
9056;SDS011;4563;54.756;9.400;2023-02-15T04:49:53;18.30;;;8.20;;
9056;SDS011;4563;54.756;9.400;2023-02-15T04:52:21;38.83;;;8.33;;
9056;SDS011;4563;54.756;9.400;2023-02-15T04:54:48;23.67;;;7.83;;
9056;SDS011;4563;54.756;9.400;2023-02-15T04:57:15;32.57;;;8.53;;
9056;SDS011;4563;54.756;9.400;2023-02-15T04:59:42;38.13;;;8.13;;
9056;SDS011;4563;54.756;9.400;2023-02-15T05:02:08;43.87;;;8.50;;
9056;SDS011;4563;54.756;9.400;2023-02-15T05:04:35;36.77;;;7.50;;
9056;SDS011;4563;54.756;9.400;2023-02-15T05:07:02;40.97;;;8.27;;
9056;SDS011;4563;54.756;9.400;2023-02-15T05:09:30;19.77;;;7.60;;
9056;SDS011;4563;54.756;9.400;2023-02-15T05:11:57;18.23;;;7.70;;
9056;SDS011;4563;54.756;9.400;2023-02-15T05:14:23;34.27;;;7.87;;
9056;SDS011;4563;54.756;9.400;2023-02-15T05:16:50;25.77;;;8.80;;
9056;SDS011;4563;54.756;9.400;2023-02-15T05:19:18;38.07;;;8.37;;
9056;SDS011;4563;54.756;9.400;2023-02-15T05:21:45;20.37;;;8.40;;
9056;SDS011;4563;54.756;9.400;2023-02-15T05:24:12;20.83;;;7.87;;
9056;SDS011;4563;54.756;9.400;2023-02-15T05:26:58;18.87;;;7.70;;
9056;SDS011;4563;54.756;9.400;2023-02-15T05:29:42;22.10;;;8.30;;
9056;SDS011;4563;54.756;9.400;2023-02-15T05:32:09;29.00;;;7.43;;
9056;SDS011;4563;54.756;9.400;2023-02-15T05:34:38;8.97;;;8.07;;
9056;SDS011;4563;54.756;9.400;2023-02-15T05:37:04;35.10;;;8.93;;
9056;SDS011;4563;54.756;9.400;2023-02-15T05:39:32;44.17;;;9.87;;
9056;SDS011;4563;54.756;9.400;2023-02-15T05:42:00;34.13;;;9.83;;
9056;SDS011;4563;54.756;9.400;2023-02-15T05:44:27;39.00;;;8.53;;
9056;SDS011;4563;54.756;9.400;2023-02-15T05:46:54;63.00;;;9.93;;
9056;SDS011;4563;54.756;9.400;2023-02-15T05:49:21;34.47;;;8.13;;
9056;SDS011;4563;54.756;9.400;2023-02-15T05:51:48;27.13;;;7.90;;
9056;SDS011;4563;54.756;9.400;2023-02-15T05:54:15;22.23;;;7.93;;
9056;SDS011;4563;54.756;9.400;2023-02-15T05:56:41;31.87;;;8.47;;
9056;SDS011;4563;54.756;9.400;2023-02-15T05:59:09;34.33;;;7.40;;
9056;SDS011;4563;54.756;9.400;2023-02-15T06:01:37;38.30;;;8.20;;
9056;SDS011;4563;54.756;9.400;2023-02-15T06:04:04;27.60;;;7.57;;
9056;SDS011;4563;54.756;9.400;2023-02-15T06:06:31;29.27;;;7.37;;
9056;SDS011;4563;54.756;9.400;2023-02-15T06:08:59;45.87;;;8.33;;
9056;SDS011;4563;54.756;9.400;2023-02-15T06:11:26;23.53;;;8.33;;
9056;SDS011;4563;54.756;9.400;2023-02-15T06:13:53;26.70;;;8.93;;
9056;SDS011;4563;54.756;9.400;2023-02-15T06:16:21;40.17;;;7.57;;
9056;SDS011;4563;54.756;9.400;2023-02-15T06:18:47;27.63;;;7.73;;
9056;SDS011;4563;54.756;9.400;2023-02-15T06:21:14;35.93;;;8.30;;
9056;SDS011;4563;54.756;9.400;2023-02-15T06:23:42;29.63;;;7.50;;
9056;SDS011;4563;54.756;9.400;2023-02-15T06:26:09;25.40;;;7.30;;
9056;SDS011;4563;54.756;9.400;2023-02-15T06:28:35;45.90;;;7.80;;
9056;SDS011;4563;54.756;9.400;2023-02-15T06:31:03;39.57;;;7.37;;
9056;SDS011;4563;54.756;9.400;2023-02-15T06:33:33;29.63;;;7.43;;
9056;SDS011;4563;54.756;9.400;2023-02-15T06:36:00;32.53;;;7.70;;
9056;SDS011;4563;54.756;9.400;2023-02-15T06:38:27;24.83;;;7.23;;
9056;SDS011;4563;54.756;9.400;2023-02-15T06:40:54;26.90;;;8.27;;
9056;SDS011;4563;54.756;9.400;2023-02-15T06:43:20;40.80;;;8.27;;
9056;SDS011;4563;54.756;9.400;2023-02-15T06:45:47;31.90;;;7.90;;
9056;SDS011;4563;54.756;9.400;2023-02-15T06:48:14;29.87;;;7.97;;
9056;SDS011;4563;54.756;9.400;2023-02-15T06:50:42;18.37;;;7.37;;
9056;SDS011;4563;54.756;9.400;2023-02-15T06:53:09;38.83;;;8.37;;
9056;SDS011;4563;54.756;9.400;2023-02-15T06:55:36;33.07;;;6.97;;
9056;SDS011;4563;54.756;9.400;2023-02-15T06:58:02;48.47;;;7.27;;
9056;SDS011;4563;54.756;9.400;2023-02-15T07:00:29;89.23;;;12.60;;
9056;SDS011;4563;54.756;9.400;2023-02-15T07:02:56;24.47;;;7.70;;
9056;SDS011;4563;54.756;9.400;2023-02-15T07:05:24;30.20;;;7.60;;
9056;SDS011;4563;54.756;9.400;2023-02-15T07:07:56;25.63;;;8.07;;
9056;SDS011;4563;54.756;9.400;2023-02-15T07:10:24;33.03;;;7.90;;
9056;SDS011;4563;54.756;9.400;2023-02-15T07:12:51;17.57;;;7.37;;
9056;SDS011;4563;54.756;9.400;2023-02-15T07:15:17;28.30;;;7.47;;
9056;SDS011;4563;54.756;9.400;2023-02-15T07:17:46;40.90;;;6.83;;
9056;SDS011;4563;54.756;9.400;2023-02-15T07:20:14;37.90;;;7.77;;
9056;SDS011;4563;54.756;9.400;2023-02-15T07:22:43;23.67;;;6.90;;
9056;SDS011;4563;54.756;9.400;2023-02-15T07:25:11;38.87;;;7.97;;
9056;SDS011;4563;54.756;9.400;2023-02-15T07:27:39;25.57;;;6.90;;
9056;SDS011;4563;54.756;9.400;2023-02-15T07:30:06;28.67;;;7.53;;
9056;SDS011;4563;54.756;9.400;2023-02-15T07:32:35;20.37;;;6.77;;
9056;SDS011;4563;54.756;9.400;2023-02-15T07:35:02;34.50;;;8.43;;
9056;SDS011;4563;54.756;9.400;2023-02-15T07:37:29;28.07;;;7.57;;
9056;SDS011;4563;54.756;9.400;2023-02-15T07:39:55;36.93;;;7.97;;
9056;SDS011;4563;54.756;9.400;2023-02-15T07:42:23;16.50;;;7.73;;
9056;SDS011;4563;54.756;9.400;2023-02-15T07:44:50;23.60;;;8.00;;
9056;SDS011;4563;54.756;9.400;2023-02-15T07:47:17;18.73;;;7.37;;
9056;SDS011;4563;54.756;9.400;2023-02-15T07:49:44;25.97;;;7.40;;
9056;SDS011;4563;54.756;9.400;2023-02-15T07:52:11;36.30;;;7.53;;
9056;SDS011;4563;54.756;9.400;2023-02-15T07:54:37;54.37;;;7.27;;
9056;SDS011;4563;54.756;9.400;2023-02-15T07:57:04;19.57;;;7.20;;
9056;SDS011;4563;54.756;9.400;2023-02-15T07:59:32;23.10;;;6.40;;
9056;SDS011;4563;54.756;9.400;2023-02-15T08:01:59;13.57;;;7.37;;
9056;SDS011;4563;54.756;9.400;2023-02-15T08:04:26;25.33;;;7.53;;
9056;SDS011;4563;54.756;9.400;2023-02-15T08:06:53;27.13;;;6.67;;
9056;SDS011;4563;54.756;9.400;2023-02-15T08:09:20;19.13;;;7.43;;
9056;SDS011;4563;54.756;9.400;2023-02-15T08:11:50;19.87;;;7.33;;
9056;SDS011;4563;54.756;9.400;2023-02-15T08:14:17;14.53;;;7.43;;
9056;SDS011;4563;54.756;9.400;2023-02-15T08:16:47;23.50;;;7.30;;
9056;SDS011;4563;54.756;9.400;2023-02-15T08:19:15;15.63;;;7.73;;
9056;SDS011;4563;54.756;9.400;2023-02-15T08:21:44;38.07;;;7.73;;
9056;SDS011;4563;54.756;9.400;2023-02-15T08:24:12;25.40;;;12.70;;
9056;SDS011;4563;54.756;9.400;2023-02-15T08:26:41;21.43;;;7.73;;
9056;SDS011;4563;54.756;9.400;2023-02-15T08:29:09;30.80;;;8.07;;
9056;SDS011;4563;54.756;9.400;2023-02-15T08:31:36;30.20;;;8.03;;
9056;SDS011;4563;54.756;9.400;2023-02-15T08:34:07;34.67;;;8.23;;
9056;SDS011;4563;54.756;9.400;2023-02-15T08:36:36;22.20;;;7.30;;
9056;SDS011;4563;54.756;9.400;2023-02-15T08:39:03;34.73;;;8.10;;
9056;SDS011;4563;54.756;9.400;2023-02-15T08:41:32;22.93;;;7.73;;
9056;SDS011;4563;54.756;9.400;2023-02-15T08:44:01;37.63;;;8.23;;
9056;SDS011;4563;54.756;9.400;2023-02-15T08:46:30;26.87;;;8.50;;
9056;SDS011;4563;54.756;9.400;2023-02-15T08:48:58;22.80;;;8.87;;
9056;SDS011;4563;54.756;9.400;2023-02-15T08:51:27;17.40;;;8.07;;
9056;SDS011;4563;54.756;9.400;2023-02-15T08:53:56;28.30;;;8.43;;
9056;SDS011;4563;54.756;9.400;2023-02-15T08:56:24;34.97;;;8.17;;
9056;SDS011;4563;54.756;9.400;2023-02-15T08:58:52;39.87;;;7.77;;
9056;SDS011;4563;54.756;9.400;2023-02-15T09:01:20;35.67;;;7.73;;
9056;SDS011;4563;54.756;9.400;2023-02-15T09:03:49;40.40;;;7.17;;
9056;SDS011;4563;54.756;9.400;2023-02-15T09:06:18;30.57;;;7.83;;
9056;SDS011;4563;54.756;9.400;2023-02-15T09:08:47;36.33;;;7.43;;
9056;SDS011;4563;54.756;9.400;2023-02-15T09:11:14;33.43;;;7.40;;
9056;SDS011;4563;54.756;9.400;2023-02-15T09:13:47;21.90;;;7.40;;
9056;SDS011;4563;54.756;9.400;2023-02-15T09:16:15;36.23;;;7.63;;
9056;SDS011;4563;54.756;9.400;2023-02-15T09:18:42;34.33;;;7.87;;
9056;SDS011;4563;54.756;9.400;2023-02-15T09:21:10;28.00;;;8.57;;
9056;SDS011;4563;54.756;9.400;2023-02-15T09:23:38;22.77;;;8.17;;
9056;SDS011;4563;54.756;9.400;2023-02-15T09:26:07;27.93;;;8.23;;
9056;SDS011;4563;54.756;9.400;2023-02-15T09:28:36;35.23;;;7.27;;
9056;SDS011;4563;54.756;9.400;2023-02-15T09:31:04;74.60;;;7.13;;
9056;SDS011;4563;54.756;9.400;2023-02-15T09:33:32;59.70;;;7.17;;
9056;SDS011;4563;54.756;9.400;2023-02-15T09:36:00;56.47;;;7.47;;
9056;SDS011;4563;54.756;9.400;2023-02-15T09:38:27;33.13;;;8.13;;
9056;SDS011;4563;54.756;9.400;2023-02-15T09:40:56;56.53;;;8.03;;
9056;SDS011;4563;54.756;9.400;2023-02-15T09:43:36;41.00;;;7.97;;
9056;SDS011;4563;54.756;9.400;2023-02-15T09:46:12;32.30;;;7.97;;
9056;SDS011;4563;54.756;9.400;2023-02-15T09:48:51;40.73;;;8.13;;
9056;SDS011;4563;54.756;9.400;2023-02-15T09:51:29;32.83;;;7.57;;
9056;SDS011;4563;54.756;9.400;2023-02-15T09:54:11;53.00;;;8.50;;
9056;SDS011;4563;54.756;9.400;2023-02-15T09:56:55;35.67;;;9.13;;
9056;SDS011;4563;54.756;9.400;2023-02-15T09:59:29;57.17;;;8.07;;
9056;SDS011;4563;54.756;9.400;2023-02-15T10:02:12;34.07;;;8.60;;
9056;SDS011;4563;54.756;9.400;2023-02-15T10:04:50;29.03;;;8.40;;
9056;SDS011;4563;54.756;9.400;2023-02-15T10:07:35;35.00;;;7.97;;
9056;SDS011;4563;54.756;9.400;2023-02-15T10:10:18;45.80;;;7.77;;
9056;SDS011;4563;54.756;9.400;2023-02-15T10:12:57;63.87;;;8.07;;
9056;SDS011;4563;54.756;9.400;2023-02-15T10:15:57;26.83;;;8.13;;
9056;SDS011;4563;54.756;9.400;2023-02-15T10:18:37;28.27;;;8.77;;
9056;SDS011;4563;54.756;9.400;2023-02-15T10:21:19;42.00;;;7.87;;
9056;SDS011;4563;54.756;9.400;2023-02-15T10:23:57;69.67;;;9.20;;
9056;SDS011;4563;54.756;9.400;2023-02-15T10:26:37;44.57;;;8.50;;
9056;SDS011;4563;54.756;9.400;2023-02-15T10:29:12;23.00;;;8.03;;
9056;SDS011;4563;54.756;9.400;2023-02-15T10:31:55;44.30;;;8.27;;
9056;SDS011;4563;54.756;9.400;2023-02-15T10:34:30;35.87;;;8.50;;
9056;SDS011;4563;54.756;9.400;2023-02-15T10:37:07;14.37;;;8.50;;
9056;SDS011;4563;54.756;9.400;2023-02-15T10:39:46;15.23;;;9.03;;
9056;SDS011;4563;54.756;9.400;2023-02-15T10:42:21;27.63;;;8.37;;
9056;SDS011;4563;54.756;9.400;2023-02-15T10:44:59;36.93;;;9.87;;
9056;SDS011;4563;54.756;9.400;2023-02-15T10:50:46;21.07;;;7.87;;
9056;SDS011;4563;54.756;9.400;2023-02-15T10:53:22;29.67;;;8.80;;
9056;SDS011;4563;54.756;9.400;2023-02-15T10:56:02;19.67;;;7.67;;
9056;SDS011;4563;54.756;9.400;2023-02-15T10:58:38;36.47;;;7.53;;
9056;SDS011;4563;54.756;9.400;2023-02-15T11:01:18;43.10;;;8.00;;
9056;SDS011;4563;54.756;9.400;2023-02-15T11:03:58;44.97;;;8.43;;
9056;SDS011;4563;54.756;9.400;2023-02-15T11:06:36;19.90;;;7.67;;
9056;SDS011;4563;54.756;9.400;2023-02-15T11:09:09;20.40;;;8.57;;
9056;SDS011;4563;54.756;9.400;2023-02-15T11:11:40;37.13;;;9.27;;
9056;SDS011;4563;54.756;9.400;2023-02-15T11:14:13;42.80;;;9.20;;
9056;SDS011;4563;54.756;9.400;2023-02-15T11:16:45;35.50;;;8.87;;
9056;SDS011;4563;54.756;9.400;2023-02-15T11:19:18;66.37;;;9.53;;
9056;SDS011;4563;54.756;9.400;2023-02-15T11:21:49;48.30;;;8.73;;
9056;SDS011;4563;54.756;9.400;2023-02-15T11:24:20;30.10;;;9.77;;
9056;SDS011;4563;54.756;9.400;2023-02-15T11:26:54;24.63;;;8.90;;
9056;SDS011;4563;54.756;9.400;2023-02-15T11:29:25;37.97;;;9.57;;
9056;SDS011;4563;54.756;9.400;2023-02-15T11:31:56;53.53;;;10.23;;
9056;SDS011;4563;54.756;9.400;2023-02-15T11:34:29;39.53;;;9.70;;
9056;SDS011;4563;54.756;9.400;2023-02-15T11:37:00;43.67;;;11.50;;
9056;SDS011;4563;54.756;9.400;2023-02-15T11:39:30;45.27;;;10.93;;
9056;SDS011;4563;54.756;9.400;2023-02-15T11:41:59;47.57;;;10.67;;
9056;SDS011;4563;54.756;9.400;2023-02-15T11:44:32;36.10;;;9.40;;
9056;SDS011;4563;54.756;9.400;2023-02-15T11:47:01;33.50;;;9.37;;
9056;SDS011;4563;54.756;9.400;2023-02-15T11:49:31;45.97;;;10.17;;
9056;SDS011;4563;54.756;9.400;2023-02-15T11:51:59;38.63;;;9.43;;
9056;SDS011;4563;54.756;9.400;2023-02-15T11:54:29;71.50;;;10.67;;
9056;SDS011;4563;54.756;9.400;2023-02-15T11:56:59;43.40;;;9.93;;
9056;SDS011;4563;54.756;9.400;2023-02-15T11:59:31;59.00;;;9.53;;
9056;SDS011;4563;54.756;9.400;2023-02-15T12:02:02;38.37;;;10.30;;
9056;SDS011;4563;54.756;9.400;2023-02-15T12:04:43;36.10;;;10.03;;
9056;SDS011;4563;54.756;9.400;2023-02-15T12:07:15;27.27;;;9.50;;
9056;SDS011;4563;54.756;9.400;2023-02-15T12:09:48;49.27;;;9.70;;
9056;SDS011;4563;54.756;9.400;2023-02-15T12:12:22;15.57;;;9.33;;
9056;SDS011;4563;54.756;9.400;2023-02-15T12:14:52;45.40;;;10.03;;
9056;SDS011;4563;54.756;9.400;2023-02-15T12:17:21;34.73;;;10.63;;
9056;SDS011;4563;54.756;9.400;2023-02-15T12:19:51;47.30;;;10.40;;
9056;SDS011;4563;54.756;9.400;2023-02-15T12:22:22;23.93;;;10.10;;
9056;SDS011;4563;54.756;9.400;2023-02-15T12:24:52;65.43;;;10.93;;
9056;SDS011;4563;54.756;9.400;2023-02-15T12:27:21;55.83;;;11.43;;
9056;SDS011;4563;54.756;9.400;2023-02-15T12:29:52;56.27;;;12.13;;
9056;SDS011;4563;54.756;9.400;2023-02-15T12:32:23;45.30;;;10.40;;
9056;SDS011;4563;54.756;9.400;2023-02-15T12:34:54;74.73;;;11.37;;
9056;SDS011;4563;54.756;9.400;2023-02-15T12:37:27;62.47;;;12.50;;
9056;SDS011;4563;54.756;9.400;2023-02-15T12:39:57;57.67;;;10.50;;
9056;SDS011;4563;54.756;9.400;2023-02-15T12:42:25;15.80;;;11.13;;
9056;SDS011;4563;54.756;9.400;2023-02-15T12:44:55;35.00;;;11.30;;
9056;SDS011;4563;54.756;9.400;2023-02-15T12:47:23;79.67;;;11.43;;
9056;SDS011;4563;54.756;9.400;2023-02-15T12:50:10;53.43;;;11.30;;
9056;SDS011;4563;54.756;9.400;2023-02-15T12:52:43;59.40;;;11.53;;
9056;SDS011;4563;54.756;9.400;2023-02-15T12:55:16;70.53;;;11.47;;
9056;SDS011;4563;54.756;9.400;2023-02-15T12:57:45;52.70;;;10.73;;
9056;SDS011;4563;54.756;9.400;2023-02-15T13:03:00;37.67;;;11.03;;
9056;SDS011;4563;54.756;9.400;2023-02-15T13:05:30;52.70;;;10.67;;
9056;SDS011;4563;54.756;9.400;2023-02-15T13:08:01;37.10;;;11.47;;
9056;SDS011;4563;54.756;9.400;2023-02-15T13:10:35;61.07;;;13.90;;
9056;SDS011;4563;54.756;9.400;2023-02-15T13:13:08;24.90;;;10.37;;
9056;SDS011;4563;54.756;9.400;2023-02-15T13:15:36;39.33;;;11.33;;
9056;SDS011;4563;54.756;9.400;2023-02-15T13:18:05;38.30;;;11.23;;
9056;SDS011;4563;54.756;9.400;2023-02-15T13:20:40;37.67;;;11.50;;
9056;SDS011;4563;54.756;9.400;2023-02-15T13:23:13;46.90;;;12.60;;
9056;SDS011;4563;54.756;9.400;2023-02-15T13:25:49;79.40;;;12.73;;
9056;SDS011;4563;54.756;9.400;2023-02-15T13:28:17;66.70;;;13.40;;
9056;SDS011;4563;54.756;9.400;2023-02-15T13:30:48;58.07;;;14.43;;
9056;SDS011;4563;54.756;9.400;2023-02-15T13:33:18;28.97;;;13.40;;
9056;SDS011;4563;54.756;9.400;2023-02-15T13:35:55;33.63;;;13.73;;
9056;SDS011;4563;54.756;9.400;2023-02-15T13:38:43;22.63;;;14.07;;
9056;SDS011;4563;54.756;9.400;2023-02-15T13:41:16;36.87;;;13.00;;
9056;SDS011;4563;54.756;9.400;2023-02-15T13:43:48;47.07;;;13.80;;
9056;SDS011;4563;54.756;9.400;2023-02-15T13:46:26;31.27;;;13.73;;
9056;SDS011;4563;54.756;9.400;2023-02-15T13:49:13;30.00;;;13.73;;
9056;SDS011;4563;54.756;9.400;2023-02-15T13:51:49;24.33;;;13.17;;
9056;SDS011;4563;54.756;9.400;2023-02-15T13:54:30;35.00;;;14.13;;
9056;SDS011;4563;54.756;9.400;2023-02-15T13:57:20;21.73;;;15.60;;
9056;SDS011;4563;54.756;9.400;2023-02-15T14:00:01;34.87;;;14.43;;
9056;SDS011;4563;54.756;9.400;2023-02-15T14:02:48;54.17;;;15.77;;
9056;SDS011;4563;54.756;9.400;2023-02-15T14:05:49;24.63;;;15.47;;
9056;SDS011;4563;54.756;9.400;2023-02-15T14:08:32;55.40;;;16.47;;
9056;SDS011;4563;54.756;9.400;2023-02-15T14:11:13;44.90;;;17.83;;
9056;SDS011;4563;54.756;9.400;2023-02-15T14:13:51;51.73;;;17.53;;
9056;SDS011;4563;54.756;9.400;2023-02-15T14:16:33;56.60;;;18.93;;
9056;SDS011;4563;54.756;9.400;2023-02-15T14:19:11;35.93;;;18.50;;
9056;SDS011;4563;54.756;9.400;2023-02-15T14:21:47;54.60;;;19.07;;
9056;SDS011;4563;54.756;9.400;2023-02-15T14:24:24;44.17;;;18.93;;
9056;SDS011;4563;54.756;9.400;2023-02-15T14:26:56;48.93;;;20.83;;
9056;SDS011;4563;54.756;9.400;2023-02-15T14:29:36;84.93;;;26.93;;
9056;SDS011;4563;54.756;9.400;2023-02-15T14:32:13;60.93;;;27.03;;
9056;SDS011;4563;54.756;9.400;2023-02-15T14:34:47;56.90;;;27.10;;
9056;SDS011;4563;54.756;9.400;2023-02-15T14:37:19;44.20;;;26.47;;
9056;SDS011;4563;54.756;9.400;2023-02-15T14:39:57;40.47;;;26.00;;
9056;SDS011;4563;54.756;9.400;2023-02-15T14:42:48;35.57;;;25.03;;
9056;SDS011;4563;54.756;9.400;2023-02-15T14:45:21;42.03;;;26.00;;
9056;SDS011;4563;54.756;9.400;2023-02-15T14:47:55;61.87;;;28.73;;
9056;SDS011;4563;54.756;9.400;2023-02-15T14:50:40;78.27;;;27.37;;
9056;SDS011;4563;54.756;9.400;2023-02-15T14:53:14;93.90;;;29.23;;
9056;SDS011;4563;54.756;9.400;2023-02-15T14:56:15;53.37;;;27.97;;
9056;SDS011;4563;54.756;9.400;2023-02-15T15:01:40;54.07;;;29.33;;
9056;SDS011;4563;54.756;9.400;2023-02-15T15:04:08;55.13;;;30.13;;
9056;SDS011;4563;54.756;9.400;2023-02-15T15:06:39;51.87;;;27.80;;
9056;SDS011;4563;54.756;9.400;2023-02-15T15:09:12;50.47;;;29.43;;
9056;SDS011;4563;54.756;9.400;2023-02-15T15:11:47;66.00;;;29.80;;
9056;SDS011;4563;54.756;9.400;2023-02-15T15:17:12;52.47;;;27.70;;
9056;SDS011;4563;54.756;9.400;2023-02-15T15:20:00;64.07;;;27.77;;
9056;SDS011;4563;54.756;9.400;2023-02-15T15:22:28;81.33;;;28.00;;
9056;SDS011;4563;54.756;9.400;2023-02-15T15:24:56;63.00;;;28.30;;
9056;SDS011;4563;54.756;9.400;2023-02-15T15:27:40;71.10;;;26.90;;
9056;SDS011;4563;54.756;9.400;2023-02-15T15:46:13;77.80;;;27.67;;
9056;SDS011;4563;54.756;9.400;2023-02-15T15:49:00;60.63;;;26.43;;
9056;SDS011;4563;54.756;9.400;2023-02-15T15:51:29;57.13;;;26.77;;
9056;SDS011;4563;54.756;9.400;2023-02-15T15:53:58;73.63;;;27.47;;